Terminal Aerodrome Forecast
Issued by NWS

Home | Current Version | Previous Version | Text Only | Print | Product List | Glossary On
Versions: 1 2 3 4 5 6 7 8 9 10 11 12 13 14 15
000
FTUS42 KFFC 250500
TAFRYY
TAF
KRYY 250525Z 2506/2606 29003KT P6SM FEW010 SCT070
     FM250900 00000KT 4SM BR BKN006
     FM251400 29005KT P6SM SCT020
     FM251600 28006KT P6SM SCT045
     FM260000 25003KT P6SM FEW050
      AMD NOT SKED TIL 251200=

USA.gov is the U.S. government's official web portal to all federal, state and local government web resources and services.